Time;durP1;ratioP1;P1;durP2;ratioP2;P2;SDS_P1;SDS_P2;PMS_P1;PMS_P2;Temp;Humidity;BMP_temperature;BMP_pressure;BME280_temperature;BME280_humidity;BME280_pressure;Samples;Min_cycle;Max_cycle;Signal;HPM_P1;HPM_P2
2021/12/08 00:00:47;;;;;;;33.53;13.70;;;-4.20;99.90;;;;;;4275494;33;20478;-66
2021/12/08 00:03:15;;;;;;;32.40;14.30;;;-4.10;99.90;;;;;;4276492;33;20200;-66
2021/12/08 00:05:44;;;;;;;31.93;13.40;;;-4.10;99.90;;;;;;4276663;33;20202;-66
2021/12/08 00:08:15;;;;;;;31.50;13.90;;;-4.10;99.90;;;;;;4287263;33;20596;-66
2021/12/08 00:13:28;;;;;;;33.67;13.80;;;-4.10;99.90;;;;;;4287668;33;20190;-66
2021/12/08 00:15:59;;;;;;;31.83;13.63;;;-4.10;99.90;;;;;;4277021;33;20435;-66
2021/12/08 00:18:29;;;;;;;31.47;13.90;;;-4.10;99.90;;;;;;4287921;33;20190;-66
2021/12/08 00:20:59;;;;;;;30.30;13.53;;;-4.10;99.90;;;;;;4287370;33;20429;-66
2021/12/08 00:23:28;;;;;;;34.67;14.17;;;-4.10;99.90;;;;;;4276912;33;20480;-66
2021/12/08 00:25:56;;;;;;;32.37;13.33;;;-4.20;99.90;;;;;;4276931;33;20146;-66
2021/12/08 00:28:24;;;;;;;27.73;13.37;;;-4.20;99.90;;;;;;4275816;33;20489;-66
2021/12/08 00:30:55;;;;;;;30.30;13.43;;;-4.20;99.90;;;;;;4289045;33;20200;-66
2021/12/08 00:33:22;;;;;;;31.40;14.30;;;-4.10;99.90;;;;;;4288492;33;20178;-66
2021/12/08 00:35:51;;;;;;;27.73;13.23;;;-4.10;99.90;;;;;;4287752;33;20182;-66
2021/12/08 00:38:19;;;;;;;27.03;12.77;;;-4.10;99.90;;;;;;4274832;33;20190;-66
2021/12/08 00:40:50;;;;;;;31.77;13.43;;;-4.10;99.90;;;;;;4276294;33;20209;-66
2021/12/08 00:43:18;;;;;;;30.27;13.07;;;-4.10;99.90;;;;;;4275703;33;20493;-66
2021/12/08 00:45:47;;;;;;;31.10;13.60;;;-4.10;99.90;;;;;;4276338;33;20399;-66
2021/12/08 00:48:14;;;;;;;27.37;13.10;;;-4.00;99.90;;;;;;4275270;33;20216;-66
2021/12/08 00:50:41;;;;;;;28.70;12.87;;;-4.10;99.90;;;;;;4275178;33;20187;-66
2021/12/08 00:53:09;;;;;;;30.00;13.23;;;-4.10;99.90;;;;;;4276506;33;20464;-66
2021/12/08 00:55:36;;;;;;;30.03;13.17;;;-4.10;99.90;;;;;;4286800;33;20185;-66
2021/12/08 00:58:04;;;;;;;28.63;13.07;;;-4.20;99.90;;;;;;4288384;33;20421;-66
2021/12/08 01:00:36;;;;;;;30.40;12.97;;;-4.10;99.90;;;;;;4275382;33;20234;-66
2021/12/08 01:03:05;;;;;;;30.97;13.37;;;-4.10;99.90;;;;;;4275938;33;20208;-66
2021/12/08 01:05:39;;;;;;;32.73;13.97;;;-4.10;99.90;;;;;;4276447;33;20197;-66
2021/12/08 01:08:07;;;;;;;30.13;13.53;;;-4.10;99.90;;;;;;4276386;33;20396;-66
2021/12/08 01:10:35;;;;;;;33.53;13.97;;;-4.10;99.90;;;;;;4288589;33;20182;-66
2021/12/08 01:13:06;;;;;;;34.13;14.07;;;-4.10;99.90;;;;;;4275679;33;20186;-66
2021/12/08 01:15:36;;;;;;;32.83;13.23;;;-4.10;99.90;;;;;;4275004;33;20658;-66
2021/12/08 01:18:03;;;;;;;29.87;13.33;;;-4.10;99.90;;;;;;4275918;33;20213;-66
2021/12/08 01:20:31;;;;;;;33.90;14.07;;;-4.10;99.90;;;;;;4276517;33;20179;-66
2021/12/08 01:22:58;;;;;;;31.40;13.57;;;-4.10;99.90;;;;;;4276173;33;20210;-66
2021/12/08 01:25:25;;;;;;;33.30;14.33;;;-4.10;99.90;;;;;;4275169;33;20185;-66
2021/12/08 01:27:52;;;;;;;31.37;13.97;;;-4.00;99.90;;;;;;4275042;33;20241;-66
2021/12/08 01:30:20;;;;;;;31.87;14.03;;;-4.00;99.90;;;;;;4277788;33;20204;-66
2021/12/08 01:32:47;;;;;;;31.73;14.47;;;-4.10;99.90;;;;;;4276318;33;20260;-66
2021/12/08 01:35:15;;;;;;;31.03;14.60;;;-4.20;99.90;;;;;;4288736;33;20173;-66
2021/12/08 01:37:42;;;;;;;35.73;15.27;;;-4.20;99.90;;;;;;4290612;33;20237;-66
2021/12/08 01:40:12;;;;;;;31.77;14.40;;;-4.20;99.90;;;;;;4290205;33;20538;-66
2021/12/08 01:42:46;;;;;;;32.70;14.27;;;-4.10;99.90;;;;;;4291825;33;20202;-66
2021/12/08 01:48:07;;;;;;;34.73;15.17;;;-4.10;99.90;;;;;;4289358;33;20462;-66
2021/12/08 01:50:34;;;;;;;35.80;14.80;;;-4.20;99.90;;;;;;4291808;33;20427;-66
2021/12/08 01:53:03;;;;;;;34.00;14.33;;;-4.20;99.90;;;;;;4290054;33;20420;-66
2021/12/08 01:55:30;;;;;;;32.27;15.27;;;-4.30;99.90;;;;;;4293794;33;20192;-66
2021/12/08 01:57:58;;;;;;;33.93;15.07;;;-4.30;99.90;;;;;;4291840;33;20533;-66
2021/12/08 02:00:32;;;;;;;30.97;14.00;;;-4.30;99.90;;;;;;4299880;33;20446;-66
2021/12/08 02:03:00;;;;;;;33.00;14.63;;;-4.40;99.90;;;;;;4278944;33;20483;-66
2021/12/08 02:05:28;;;;;;;32.60;15.13;;;-4.40;99.90;;;;;;4289251;33;20536;-66
2021/12/08 02:07:55;;;;;;;34.07;15.20;;;-4.40;99.90;;;;;;4277405;33;20521;-66
2021/12/08 02:10:24;;;;;;;32.63;14.50;;;-4.40;99.90;;;;;;4277521;33;20561;-66
2021/12/08 02:12:51;;;;;;;31.87;14.20;;;-4.40;99.90;;;;;;4277275;33;20182;-66
2021/12/08 02:15:20;;;;;;;28.67;14.00;;;-4.40;99.90;;;;;;4289264;33;20169;-66
2021/12/08 02:17:51;;;;;;;32.20;13.73;;;-4.40;99.90;;;;;;4278740;33;20212;-66
2021/12/08 02:20:21;;;;;;;31.00;13.83;;;-4.40;99.90;;;;;;4277603;33;20182;-66
2021/12/08 02:22:48;;;;;;;32.03;13.93;;;-4.40;99.90;;;;;;4290180;33;20229;-66
2021/12/08 02:25:19;;;;;;;31.30;13.73;;;-4.40;99.90;;;;;;4279916;33;20176;-66
2021/12/08 02:27:47;;;;;;;29.10;12.27;;;-4.50;99.90;;;;;;4290351;33;20229;-66
2021/12/08 02:49:20;;;;;;;28.30;12.70;;;-4.90;99.90;;;;;;4264681;33;20217;-66
2021/12/08 02:51:50;;;;;;;28.40;13.43;;;-4.80;99.90;;;;;;4277522;33;20385;-66
2021/12/08 02:54:18;;;;;;;25.87;12.60;;;-4.80;99.90;;;;;;4264386;33;20538;-66
2021/12/08 02:56:45;;;;;;;29.37;12.73;;;-4.70;99.90;;;;;;4263946;33;20178;-66
2021/12/08 02:59:13;;;;;;;29.17;13.30;;;-4.70;99.90;;;;;;4265503;33;20225;-66
2021/12/08 03:01:41;;;;;;;29.63;13.37;;;-4.70;99.90;;;;;;4265310;33;20591;-66
2021/12/08 03:04:09;;;;;;;30.07;13.43;;;-4.70;99.90;;;;;;4276172;33;20155;-66
2021/12/08 03:06:36;;;;;;;32.03;14.60;;;-4.70;99.90;;;;;;4263633;33;20233;-66
2021/12/08 03:09:05;;;;;;;30.73;13.23;;;-4.70;99.90;;;;;;4264030;33;20182;-66
2021/12/08 03:11:33;;;;;;;31.67;13.93;;;-4.70;99.90;;;;;;4271983;33;20162;-66
2021/12/08 03:14:08;;;;;;;29.93;13.33;;;-4.70;99.90;;;;;;4256373;33;20239;-66
2021/12/08 03:16:39;;;;;;;30.67;13.20;;;-4.80;99.90;;;;;;4275371;33;20449;-66
2021/12/08 03:19:06;;;;;;;29.40;13.13;;;-4.70;99.90;;;;;;4277694;33;20474;-66
2021/12/08 03:21:34;;;;;;;31.00;13.93;;;-4.70;99.90;;;;;;4289974;33;20215;-66
2021/12/08 03:24:29;;;;;;;31.00;13.23;;;-4.70;99.90;;;;;;4277586;33;20204;-66
2021/12/08 03:32:07;;;;;;;30.33;13.70;;;-4.90;99.90;;;;;;4277958;33;20216;-66
2021/12/08 03:34:38;;;;;;;30.17;13.03;;;-5.00;99.90;;;;;;4289435;33;20219;-66
2021/12/08 03:37:07;;;;;;;24.33;12.17;;;-5.00;99.90;;;;;;4288383;33;20182;-66
2021/12/08 03:39:39;;;;;;;29.87;12.67;;;-5.10;99.90;;;;;;4277688;33;20143;-66
2021/12/08 03:42:06;;;;;;;29.03;13.00;;;-5.10;99.90;;;;;;4277799;33;20173;-66
2021/12/08 03:44:34;;;;;;;27.93;12.20;;;-5.00;99.90;;;;;;4277285;33;20158;-66
2021/12/08 03:47:12;;;;;;;30.43;13.03;;;-5.10;99.90;;;;;;4276936;33;20546;-66
2021/12/08 03:49:41;;;;;;;28.93;12.47;;;-5.00;99.90;;;;;;4288979;33;20212;-66
2021/12/08 03:52:08;;;;;;;29.47;12.63;;;-5.00;99.90;;;;;;4276074;33;20187;-66
2021/12/08 03:54:36;;;;;;;29.10;12.73;;;-5.10;99.90;;;;;;4288425;33;20194;-66
2021/12/08 03:57:04;;;;;;;27.37;12.87;;;-5.00;99.90;;;;;;4277485;33;20188;-66
2021/12/08 03:59:32;;;;;;;28.33;13.27;;;-5.00;99.90;;;;;;4288366;33;20659;-66
2021/12/08 04:01:59;;;;;;;29.13;12.77;;;-5.00;99.90;;;;;;4277382;33;20445;-66
2021/12/08 04:04:29;;;;;;;29.03;13.07;;;-5.00;99.90;;;;;;4289106;33;20170;-66
2021/12/08 04:07:02;;;;;;;26.63;12.50;;;-5.10;99.90;;;;;;4276007;33;20506;-66
2021/12/08 04:09:38;;;;;;;31.33;13.23;;;-5.00;99.90;;;;;;4289112;33;20528;-66
2021/12/08 04:12:08;;;;;;;27.47;12.80;;;-5.00;99.90;;;;;;4275283;33;20537;-66
2021/12/08 04:14:43;;;;;;;31.17;13.23;;;-5.00;99.90;;;;;;4276882;33;20165;-66
2021/12/08 04:17:36;;;;;;;26.53;12.67;;;-5.10;99.90;;;;;;4275210;33;20477;-66
2021/12/08 04:20:13;;;;;;;30.50;13.47;;;-5.10;99.90;;;;;;4275432;33;20185;-66
2021/12/08 04:22:43;;;;;;;28.80;13.23;;;-5.10;99.90;;;;;;4287253;33;20560;-66
2021/12/08 04:25:14;;;;;;;29.50;12.57;;;-5.20;99.90;;;;;;4276260;33;20233;-66
2021/12/08 04:27:43;;;;;;;30.17;13.17;;;-5.20;99.90;;;;;;4277109;33;20225;-66
2021/12/08 04:30:18;;;;;;;29.27;13.00;;;-5.10;99.90;;;;;;4276096;33;20178;-66
2021/12/08 04:32:45;;;;;;;25.57;12.57;;;-5.20;99.90;;;;;;4277703;33;20436;-66
2021/12/08 04:35:15;;;;;;;27.20;12.53;;;-5.20;99.90;;;;;;4288378;33;20196;-66
2021/12/08 04:37:47;;;;;;;29.30;12.53;;;-5.20;99.90;;;;;;4275235;33;20174;-66
2021/12/08 04:40:37;;;;;;;26.97;12.17;;;-5.30;99.90;;;;;;4275645;33;20186;-66
2021/12/08 04:43:22;;;;;;;28.53;12.17;;;-5.20;99.90;;;;;;4286926;33;20185;-66
2021/12/08 04:46:08;;;;;;;28.50;13.23;;;-5.30;99.90;;;;;;4275487;33;20532;-66
2021/12/08 04:49:00;;;;;;;25.13;11.73;;;-5.30;99.90;;;;;;4287134;33;20444;-66
2021/12/08 04:51:43;;;;;;;29.40;12.80;;;-5.40;99.90;;;;;;4275564;33;20208;-66
2021/12/08 05:08:45;;;;;;;25.83;10.87;;;-5.50;99.90;;;;;;4231959;34;20202;-66
2021/12/08 05:11:25;;;;;;;25.70;11.13;;;-5.50;99.90;;;;;;4220326;34;20484;-66
2021/12/08 05:13:59;;;;;;;23.20;10.80;;;-5.50;99.90;;;;;;4219644;34;20339;-66
2021/12/08 05:16:27;;;;;;;26.83;12.17;;;-5.60;99.90;;;;;;4219761;34;20186;-66
2021/12/08 05:18:56;;;;;;;23.67;11.87;;;-5.60;99.90;;;;;;4220610;34;20596;-66
2021/12/08 05:21:55;;;;;;;23.73;11.77;;;-5.60;99.90;;;;;;4219948;34;20236;-66
2021/12/08 05:24:28;;;;;;;22.97;11.13;;;-5.60;99.90;;;;;;4233112;34;20262;-66
2021/12/08 05:27:05;;;;;;;23.00;10.87;;;-5.60;99.90;;;;;;4219890;34;20594;-66
2021/12/08 05:29:42;;;;;;;25.80;11.57;;;-5.60;99.90;;;;;;4233118;33;20269;-66
2021/12/08 05:32:10;;;;;;;24.93;11.23;;;-5.60;99.90;;;;;;4222367;34;20219;-66
2021/12/08 05:34:39;;;;;;;22.80;10.37;;;-5.50;99.90;;;;;;4265188;33;20187;-66
2021/12/08 05:37:08;;;;;;;21.90;10.37;;;-5.60;99.90;;;;;;4278974;33;20568;-65
2021/12/08 05:39:36;;;;;;;21.10;10.00;;;-5.60;99.90;;;;;;4289695;33;20498;-66
2021/12/08 05:42:08;;;;;;;24.10;10.40;;;-5.60;99.90;;;;;;4280434;33;20196;-66
2021/12/08 05:44:36;;;;;;;22.57;10.40;;;-5.80;99.90;;;;;;4280220;33;20541;-66
2021/12/08 05:47:09;;;;;;;25.57;11.33;;;-5.90;99.90;;;;;;4277759;33;20438;-66
2021/12/08 05:49:37;;;;;;;20.60;9.63;;;-5.90;99.90;;;;;;4278849;33;20209;-66
2021/12/08 05:52:05;;;;;;;22.10;9.80;;;-5.90;99.90;;;;;;4289429;33;20178;-66
2021/12/08 05:54:36;;;;;;;24.30;10.43;;;-5.80;99.90;;;;;;4289668;33;20414;-66
2021/12/08 05:57:15;;;;;;;22.47;10.40;;;-5.80;99.90;;;;;;4278086;33;20246;-66
2021/12/08 05:59:45;;;;;;;21.10;10.33;;;-5.80;99.90;;;;;;4289769;33;20253;-66
2021/12/08 06:02:17;;;;;;;20.90;9.93;;;-5.70;99.90;;;;;;4290009;33;20244;-66
2021/12/08 06:04:45;;;;;;;20.47;9.50;;;-5.70;99.90;;;;;;4289511;33;20238;-66
2021/12/08 06:07:13;;;;;;;23.67;10.37;;;-5.70;99.90;;;;;;4277906;33;20552;-66
2021/12/08 06:09:42;;;;;;;23.03;10.07;;;-5.70;99.90;;;;;;4277834;33;20233;-66
2021/12/08 06:12:10;;;;;;;24.33;10.47;;;-5.80;99.90;;;;;;4279177;33;20409;-66
2021/12/08 06:14:38;;;;;;;20.53;9.73;;;-5.80;99.90;;;;;;4289048;33;20186;-66
2021/12/08 06:17:13;;;;;;;25.07;10.20;;;-5.80;99.90;;;;;;4277467;33;20222;-66
2021/12/08 06:19:42;;;;;;;20.70;9.60;;;-5.80;99.90;;;;;;4277262;33;20189;-66
2021/12/08 06:22:11;;;;;;;22.67;10.23;;;-5.70;99.90;;;;;;4289792;33;20596;-66
2021/12/08 06:24:40;;;;;;;23.50;10.33;;;-5.70;99.90;;;;;;4289455;33;20225;-66
2021/12/08 06:27:08;;;;;;;21.13;10.10;;;-5.60;99.90;;;;;;4278651;33;20178;-66
2021/12/08 06:29:36;;;;;;;20.53;10.03;;;-5.60;99.90;;;;;;4278991;33;20155;-66
2021/12/08 06:32:06;;;;;;;23.13;9.63;;;-5.70;99.90;;;;;;4276766;33;20177;-66
2021/12/08 06:34:35;;;;;;;21.23;9.60;;;-5.80;99.90;;;;;;4289772;33;20246;-66
2021/12/08 06:37:10;;;;;;;23.17;9.50;;;-5.80;99.90;;;;;;4289020;33;20603;-66
2021/12/08 06:39:52;;;;;;;21.27;9.50;;;-5.90;99.90;;;;;;4288592;33;20196;-66
2021/12/08 06:42:23;;;;;;;22.33;9.67;;;-5.90;99.90;;;;;;4288724;33;20178;-66
2021/12/08 06:44:52;;;;;;;22.33;9.70;;;-5.90;99.90;;;;;;4277224;33;20205;-66
2021/12/08 06:47:24;;;;;;;20.03;9.50;;;-6.00;99.90;;;;;;4288827;33;20580;-65
2021/12/08 06:49:56;;;;;;;20.57;9.17;;;-6.00;99.90;;;;;;4276484;33;20249;-66
2021/12/08 06:52:28;;;;;;;21.27;9.17;;;-6.00;99.90;;;;;;4278171;33;20454;-66
2021/12/08 06:55:14;;;;;;;21.10;9.00;;;-6.00;99.90;;;;;;4278144;33;20150;-66
2021/12/08 06:57:58;;;;;;;20.20;9.37;;;-6.00;99.90;;;;;;4289826;33;20525;-66
2021/12/08 07:00:47;;;;;;;21.43;9.87;;;-6.10;99.90;;;;;;4277648;33;20583;-66
2021/12/08 07:08:26;;;;;;;21.27;10.37;;;-6.10;99.90;;;;;;4276613;33;20196;-66
2021/12/08 07:10:56;;;;;;;19.87;10.13;;;-6.10;99.90;;;;;;4277465;33;20229;-66
2021/12/08 07:13:30;;;;;;;22.93;9.60;;;-6.10;99.90;;;;;;4289547;33;20604;-66
2021/12/08 07:16:21;;;;;;;21.13;9.93;;;-6.10;99.90;;;;;;4276372;33;20529;-66
2021/12/08 07:19:01;;;;;;;22.20;9.60;;;-6.00;99.90;;;;;;4277483;33;20257;-66
2021/12/08 07:21:40;;;;;;;24.67;10.13;;;-5.90;99.90;;;;;;4288281;33;20232;-66
2021/12/08 07:24:16;;;;;;;23.17;10.50;;;-5.80;99.90;;;;;;4275915;33;20524;-66
2021/12/08 07:26:46;;;;;;;18.37;9.30;;;-5.80;99.90;;;;;;4287902;33;20518;-66
2021/12/08 07:29:20;;;;;;;22.53;10.53;;;-5.80;99.90;;;;;;4278670;33;20218;-66
2021/12/08 07:31:54;;;;;;;19.53;9.50;;;-5.80;99.90;;;;;;4275967;33;20173;-66
2021/12/08 07:34:24;;;;;;;22.37;10.03;;;-6.00;99.90;;;;;;4288750;33;20196;-66
2021/12/08 07:37:02;;;;;;;21.23;10.10;;;-5.90;99.90;;;;;;4277072;33;20501;-66
2021/12/08 07:39:33;;;;;;;19.60;9.57;;;-6.00;99.90;;;;;;4288754;33;20511;-66
2021/12/08 07:42:11;;;;;;;20.10;10.03;;;-5.90;99.90;;;;;;4277461;33;20154;-66
2021/12/08 07:44:38;;;;;;;21.17;10.10;;;-5.80;99.90;;;;;;4288365;33;20177;-66
2021/12/08 07:47:09;;;;;;;20.60;9.77;;;-5.70;99.90;;;;;;4276866;33;20490;-66
2021/12/08 07:49:57;;;;;;;23.87;10.07;;;-5.70;99.90;;;;;;4287505;33;20590;-66
2021/12/08 07:52:33;;;;;;;21.53;9.97;;;-5.70;99.90;;;;;;4288852;33;20249;-66
2021/12/08 07:55:03;;;;;;;24.37;10.70;;;-5.60;99.90;;;;;;4288001;33;20216;-66
2021/12/08 07:57:34;;;;;;;25.87;10.10;;;-5.70;99.90;;;;;;4276133;33;20233;-66
2021/12/08 08:00:14;;;;;;;21.87;9.90;;;-5.60;99.90;;;;;;4275871;33;20173;-66
2021/12/08 08:02:43;;;;;;;22.57;10.47;;;-5.70;99.90;;;;;;4289098;33;20174;-66
2021/12/08 08:05:15;;;;;;;22.13;10.63;;;-5.60;99.90;;;;;;4289070;33;20186;-66
2021/12/08 08:07:44;;;;;;;22.93;10.00;;;-5.60;99.90;;;;;;4287320;33;20258;-66
2021/12/08 08:10:15;;;;;;;22.27;10.33;;;-5.60;99.90;;;;;;4274792;33;20529;-66
2021/12/08 08:12:48;;;;;;;24.23;10.43;;;-5.50;99.90;;;;;;4288806;33;20204;-66
2021/12/08 08:15:22;;;;;;;22.90;10.57;;;-5.50;99.90;;;;;;4276529;33;20203;-66
2021/12/08 08:17:53;;;;;;;22.03;10.27;;;-5.50;99.90;;;;;;4288437;33;20186;-66
2021/12/08 08:20:29;;;;;;;27.33;11.23;;;-5.40;99.90;;;;;;4275590;33;20177;-66
2021/12/08 08:22:58;;;;;;;24.50;10.57;;;-5.30;99.90;;;;;;4275697;33;20615;-66
2021/12/08 08:25:35;;;;;;;27.30;11.30;;;-5.20;99.90;;;;;;4278224;33;20212;-66
2021/12/08 08:28:04;;;;;;;24.93;10.67;;;-5.20;99.90;;;;;;4276391;33;20173;-66
2021/12/08 08:30:48;;;;;;;25.63;11.40;;;-5.10;99.90;;;;;;4275827;33;20198;-66
2021/12/08 08:33:16;;;;;;;25.60;11.57;;;-5.10;99.90;;;;;;4277788;33;20500;-66
2021/12/08 08:35:48;;;;;;;27.70;11.20;;;-5.00;99.90;;;;;;4276091;33;20220;-66
2021/12/08 08:38:26;;;;;;;27.63;11.60;;;-4.90;99.90;;;;;;4276696;33;20194;-66
2021/12/08 08:41:31;;;;;;;26.43;11.20;;;-5.00;99.90;;;;;;4274758;33;20654;-66
2021/12/08 08:44:04;;;;;;;26.97;10.83;;;-5.00;99.90;;;;;;4260846;33;20334;-66
2021/12/08 08:46:36;;;;;;;26.83;12.13;;;-4.90;99.90;;;;;;4247947;33;20186;-66
2021/12/08 08:49:10;;;;;;;26.97;11.63;;;-4.90;99.90;;;;;;4248973;33;20222;-66
2021/12/08 08:51:59;;;;;;;26.33;12.03;;;-4.90;99.90;;;;;;4259538;33;20197;-66
2021/12/08 08:54:40;;;;;;;27.30;11.40;;;-4.80;99.90;;;;;;4259820;33;20179;-66
2021/12/08 08:57:18;;;;;;;26.27;11.13;;;-4.80;99.90;;;;;;4259345;33;20480;-65
2021/12/08 08:59:58;;;;;;;29.13;12.00;;;-4.80;99.90;;;;;;4250883;33;20190;-65
2021/12/08 09:02:38;;;;;;;25.40;11.70;;;-4.80;99.90;;;;;;4270307;33;20154;-65
2021/12/08 09:05:18;;;;;;;24.77;11.17;;;-4.80;99.90;;;;;;4261831;33;20556;-65
2021/12/08 09:08:09;;;;;;;27.63;11.43;;;-4.70;99.90;;;;;;4274805;33;20425;-65
2021/12/08 09:10:42;;;;;;;24.27;11.53;;;-4.80;99.90;;;;;;4274156;33;20211;-65
2021/12/08 09:13:35;;;;;;;30.03;12.10;;;-4.70;99.90;;;;;;4274265;33;20174;-65
2021/12/08 09:16:09;;;;;;;24.90;11.27;;;-4.60;99.90;;;;;;4273648;33;20229;-65
2021/12/08 09:18:50;;;;;;;31.30;12.67;;;-4.60;99.90;;;;;;4262178;33;20242;-64
2021/12/08 09:21:44;;;;;;;27.10;11.30;;;-4.70;99.90;;;;;;4285765;33;20541;-65
2021/12/08 09:24:17;;;;;;;24.50;11.43;;;-4.70;99.90;;;;;;4275310;33;20470;-66
2021/12/08 09:26:50;;;;;;;30.40;12.97;;;-4.70;99.90;;;;;;4287042;33;20176;-66
2021/12/08 09:29:25;;;;;;;26.33;11.80;;;-4.80;99.90;;;;;;4286553;33;20189;-66
2021/12/08 09:31:56;;;;;;;31.93;12.10;;;-4.80;99.90;;;;;;4300840;33;20233;-65
2021/12/08 09:34:54;;;;;;;26.90;12.87;;;-4.80;99.90;;;;;;4289072;33;20613;-66
2021/12/08 09:37:25;;;;;;;29.17;12.00;;;-4.80;99.90;;;;;;4288028;33;20596;-66
2021/12/08 09:39:58;;;;;;;28.87;12.57;;;-4.70;99.90;;;;;;4291397;33;20154;-66
2021/12/08 09:42:34;;;;;;;24.70;11.63;;;-4.60;99.90;;;;;;4290104;33;20189;-66
2021/12/08 09:45:26;;;;;;;28.33;12.33;;;-4.50;99.90;;;;;;4290113;33;20471;-66
2021/12/08 09:47:53;;;;;;;29.07;12.13;;;-4.40;99.90;;;;;;4288905;33;20295;-66
2021/12/08 09:50:21;;;;;;;29.47;12.60;;;-4.20;99.90;;;;;;4279379;33;20173;-66
2021/12/08 09:52:50;;;;;;;32.20;13.00;;;-4.10;99.90;;;;;;4276069;33;20150;-65
2021/12/08 09:55:18;;;;;;;28.03;12.47;;;-4.10;99.90;;;;;;4286088;33;20170;-66
2021/12/08 09:57:47;;;;;;;30.33;12.17;;;-4.10;99.90;;;;;;4287229;33;20472;-66
2021/12/08 10:00:29;;;;;;;28.17;11.53;;;-4.20;99.90;;;;;;4287711;33;20485;-66
2021/12/08 10:02:59;;;;;;;27.90;12.33;;;-4.20;99.90;;;;;;4286470;33;20170;-66
2021/12/08 10:05:29;;;;;;;30.27;12.33;;;-4.20;99.90;;;;;;4274542;33;20147;-66
2021/12/08 10:07:58;;;;;;;28.07;12.03;;;-4.20;99.90;;;;;;4277128;33;20162;-66
2021/12/08 10:10:27;;;;;;;25.07;11.73;;;-4.10;99.90;;;;;;4289801;33;20204;-65
2021/12/08 10:12:55;;;;;;;28.43;11.83;;;-4.00;99.90;;;;;;4288579;33;20300;-66
2021/12/08 10:15:24;;;;;;;28.23;11.63;;;-3.90;99.90;;;;;;4289485;33;20220;-65
2021/12/08 10:17:55;;;;;;;26.93;11.53;;;-3.80;99.90;;;;;;4292314;33;20216;-66
2021/12/08 10:20:32;;;;;;;25.83;11.77;;;-3.70;99.90;;;;;;4293793;33;20162;-65
2021/12/08 10:23:11;;;;;;;27.93;12.00;;;-3.70;99.90;;;;;;4282548;33;20181;-65
2021/12/08 10:25:50;;;;;;;26.83;12.00;;;-3.60;99.90;;;;;;4289055;33;20181;-66
2021/12/08 10:28:21;;;;;;;30.80;11.87;;;-3.50;99.90;;;;;;4288573;33;20553;-66
2021/12/08 10:31:13;;;;;;;29.50;11.53;;;-3.40;99.90;;;;;;4275792;33;20234;-66
2021/12/08 10:34:04;;;;;;;30.43;12.20;;;-3.40;99.90;;;;;;4272697;33;20220;-66
2021/12/08 10:36:55;;;;;;;26.90;12.43;;;-3.50;99.90;;;;;;4289157;33;20248;-66
2021/12/08 10:39:46;;;;;;;28.53;12.77;;;-3.50;99.90;;;;;;4278784;33;20185;-66
2021/12/08 10:42:22;;;;;;;27.80;11.90;;;-3.50;99.90;;;;;;4288753;33;20233;-66
2021/12/08 10:45:23;;;;;;;33.43;13.50;;;-3.40;99.90;;;;;;4278337;33;20197;-66
2021/12/08 10:47:50;;;;;;;32.03;13.30;;;-3.50;99.90;;;;;;4288828;33;20268;-66
2021/12/08 10:56:13;;;;;;;28.23;12.77;;;-3.60;99.90;;;;;;4288661;33;20195;-66
2021/12/08 10:58:47;;;;;;;32.60;12.77;;;-3.60;99.90;;;;;;4303301;33;20204;-66
2021/12/08 11:01:23;;;;;;;27.53;11.97;;;-3.60;99.90;;;;;;4304381;33;20178;-66
2021/12/08 11:03:59;;;;;;;29.40;12.10;;;-3.60;99.90;;;;;;4290202;33;20188;-67
2021/12/08 11:06:32;;;;;;;26.37;12.33;;;-3.40;99.90;;;;;;4290841;33;20192;-66
2021/12/08 11:09:00;;;;;;;29.23;11.77;;;-3.40;99.90;;;;;;4291411;33;20182;-66
2021/12/08 11:11:32;;;;;;;29.97;12.93;;;-3.50;99.90;;;;;;4303540;33;20244;-66
2021/12/08 11:14:04;;;;;;;28.57;12.73;;;-3.50;99.90;;;;;;4302672;33;20182;-66
2021/12/08 11:16:40;;;;;;;30.63;11.70;;;-3.50;99.90;;;;;;4290893;33;20245;-66
2021/12/08 11:19:21;;;;;;;31.67;13.13;;;-3.40;99.90;;;;;;4291469;33;20251;-66
2021/12/08 11:21:56;;;;;;;27.33;11.90;;;-3.40;99.90;;;;;;4293707;33;20161;-66
2021/12/08 11:24:44;;;;;;;29.43;11.73;;;-3.40;99.90;;;;;;4290525;33;20234;-66
2021/12/08 11:27:29;;;;;;;27.47;11.73;;;-3.40;99.90;;;;;;4289485;33;20249;-66
2021/12/08 11:29:56;;;;;;;24.93;11.53;;;-3.40;99.90;;;;;;4290415;33;20199;-66
2021/12/08 11:32:24;;;;;;;30.37;11.47;;;-3.30;99.90;;;;;;4289165;33;20197;-66
2021/12/08 11:34:53;;;;;;;26.13;11.03;;;-3.30;99.90;;;;;;4277791;33;20181;-66
2021/12/08 11:37:32;;;;;;;27.83;11.07;;;-3.30;99.90;;;;;;4274268;33;20260;-66
2021/12/08 11:40:01;;;;;;;28.83;12.80;;;-3.30;99.90;;;;;;4287854;33;20628;-66
2021/12/08 11:42:35;;;;;;;25.80;10.83;;;-3.30;99.90;;;;;;4279222;33;20170;-66
2021/12/08 11:45:15;;;;;;;24.60;10.80;;;-3.20;99.90;;;;;;4290533;33;20181;-66
2021/12/08 11:47:44;;;;;;;24.07;10.70;;;-3.30;99.90;;;;;;4290426;33;20427;-66
2021/12/08 11:50:21;;;;;;;25.80;11.47;;;-3.10;99.90;;;;;;4290697;33;20230;-66
2021/12/08 11:52:54;;;;;;;27.90;11.30;;;-3.10;99.90;;;;;;4291545;33;20207;-66
2021/12/08 11:55:25;;;;;;;27.77;11.60;;;-3.00;99.90;;;;;;4291840;33;20141;-66
2021/12/08 11:57:56;;;;;;;26.47;11.73;;;-2.90;99.90;;;;;;4290105;33;20189;-66
2021/12/08 12:00:34;;;;;;;25.80;11.40;;;-3.00;99.90;;;;;;4302348;33;20206;-66
2021/12/08 12:03:07;;;;;;;23.83;11.07;;;-2.80;99.90;;;;;;4289748;33;20193;-66
2021/12/08 12:05:37;;;;;;;24.50;11.33;;;-2.70;99.90;;;;;;4287605;33;20229;-66
2021/12/08 12:08:07;;;;;;;31.20;12.20;;;-2.60;99.90;;;;;;4277002;33;20549;-66
2021/12/08 12:10:37;;;;;;;28.90;12.53;;;-2.60;99.90;;;;;;4289927;33;20221;-66
2021/12/08 12:13:08;;;;;;;28.70;11.30;;;-2.60;99.90;;;;;;4290454;33;20586;-66
2021/12/08 12:15:38;;;;;;;26.47;12.23;;;-2.60;99.90;;;;;;4290892;33;20167;-66
2021/12/08 12:18:05;;;;;;;26.47;11.93;;;-2.60;99.90;;;;;;4301533;33;20477;-67
2021/12/08 12:20:40;;;;;;;24.50;11.37;;;-2.60;99.90;;;;;;4302149;33;20182;-66
2021/12/08 12:23:26;;;;;;;27.77;12.60;;;-2.60;99.90;;;;;;4292260;33;20227;-66
2021/12/08 12:26:25;;;;;;;28.37;11.90;;;-2.50;99.90;;;;;;4289601;33;20181;-66
2021/12/08 12:29:31;;;;;;;29.53;12.17;;;-2.50;99.90;;;;;;4250766;33;20196;-66
2021/12/08 12:32:17;;;;;;;23.87;11.20;;;-2.40;99.90;;;;;;4262149;33;20223;-66
2021/12/08 12:34:44;;;;;;;28.80;11.70;;;-2.50;99.90;;;;;;4262072;33;20382;-66
2021/12/08 12:37:17;;;;;;;25.97;11.27;;;-2.50;99.90;;;;;;4274780;33;20170;-66
2021/12/08 12:39:49;;;;;;;25.23;11.63;;;-2.60;99.90;;;;;;4263875;33;20209;-66
2021/12/08 12:42:18;;;;;;;25.40;11.53;;;-2.60;99.90;;;;;;4261736;33;20192;-66
2021/12/08 12:45:06;;;;;;;29.23;12.60;;;-2.50;99.90;;;;;;4263759;33;20248;-66
2021/12/08 12:47:34;;;;;;;26.63;11.30;;;-2.40;99.90;;;;;;4262011;33;20173;-66
2021/12/08 12:50:23;;;;;;;25.33;12.17;;;-2.40;99.90;;;;;;4274229;33;20150;-66
2021/12/08 12:52:56;;;;;;;26.70;11.57;;;-2.30;99.90;;;;;;4274243;33;20213;-66
2021/12/08 12:55:26;;;;;;;27.37;12.67;;;-2.10;99.90;;;;;;4261900;33;20175;-66
2021/12/08 12:58:03;;;;;;;25.23;12.20;;;-1.90;99.90;;;;;;4274312;33;20225;-66
2021/12/08 13:00:41;;;;;;;23.80;12.00;;;-1.60;99.90;;;;;;4262810;33;20165;-66
2021/12/08 13:03:28;;;;;;;26.10;11.30;;;-1.20;99.90;;;;;;4262938;33;20185;-66
2021/12/08 13:05:56;;;;;;;24.10;11.30;;;-0.80;99.90;;;;;;4273995;33;20197;-66
2021/12/08 13:08:37;;;;;;;24.40;10.97;;;-0.50;99.90;;;;;;4289872;33;20203;-66
2021/12/08 13:11:29;;;;;;;24.80;11.37;;;-0.30;99.90;;;;;;4290439;33;20186;-66
2021/12/08 13:13:57;;;;;;;26.70;11.57;;;-0.40;99.90;;;;;;4289258;33;20242;-66
2021/12/08 13:16:34;;;;;;;23.07;11.67;;;-0.40;99.90;;;;;;4285302;33;20243;-67
2021/12/08 13:19:06;;;;;;;22.97;11.60;;;-0.40;99.90;;;;;;4275530;33;20185;-66
2021/12/08 13:21:48;;;;;;;24.20;11.10;;;-0.30;99.90;;;;;;4286893;33;20178;-66
2021/12/08 13:24:33;;;;;;;22.60;11.00;;;-0.20;99.90;;;;;;4286801;33;20189;-67
2021/12/08 13:27:06;;;;;;;20.93;10.43;;;-0.10;99.90;;;;;;4275462;33;20174;-67
2021/12/08 13:29:36;;;;;;;23.00;11.20;;;-0.10;99.90;;;;;;4274674;33;20200;-67
2021/12/08 13:32:11;;;;;;;24.50;11.63;;;0.00;99.90;;;;;;4286111;33;20196;-66
2021/12/08 13:34:42;;;;;;;21.37;10.10;;;0.10;99.90;;;;;;4286663;33;20197;-67
2021/12/08 13:37:21;;;;;;;21.83;10.90;;;0.10;99.90;;;;;;4274662;33;20182;-68
2021/12/08 13:39:51;;;;;;;23.87;11.03;;;-0.10;99.90;;;;;;4282832;33;20256;-67
2021/12/08 13:42:55;;;;;;;23.40;10.87;;;-0.20;99.90;;;;;;4280955;33;20404;-66
2021/12/08 13:45:22;;;;;;;22.00;10.73;;;-0.30;99.90;;;;;;4284786;33;20201;-67
2021/12/08 13:47:49;;;;;;;22.10;10.40;;;-0.40;99.90;;;;;;4285442;33;20251;-66
2021/12/08 13:50:24;;;;;;;21.07;11.20;;;-0.60;99.90;;;;;;4272077;33;20240;-66
2021/12/08 13:52:54;;;;;;;22.40;10.90;;;-0.80;99.90;;;;;;4275529;33;20257;-66
2021/12/08 13:55:25;;;;;;;21.73;10.47;;;-0.90;99.90;;;;;;4275148;33;20162;-66